sensor_id;sensor_type;location;lat;lon;timestamp;P1;durP1;ratioP1;P2;durP2;ratioP2
75885;SDS011;64561;44.018;10.144;2022-12-18T00:03:49;14.55;;;6.95;;
75885;SDS011;64561;44.018;10.144;2022-12-18T00:06:17;18.67;;;7.20;;
75885;SDS011;64561;44.018;10.144;2022-12-18T00:08:46;21.02;;;9.80;;
75885;SDS011;64561;44.018;10.144;2022-12-18T00:11:14;18.52;;;8.18;;
75885;SDS011;64561;44.018;10.144;2022-12-18T00:13:43;12.60;;;7.47;;
75885;SDS011;64561;44.018;10.144;2022-12-18T00:16:11;13.52;;;7.35;;
75885;SDS011;64561;44.018;10.144;2022-12-18T00:18:40;12.82;;;7.47;;
75885;SDS011;64561;44.018;10.144;2022-12-18T00:21:09;13.80;;;7.30;;
75885;SDS011;64561;44.018;10.144;2022-12-18T00:23:37;15.23;;;6.90;;
75885;SDS011;64561;44.018;10.144;2022-12-18T00:26:07;10.95;;;6.25;;
75885;SDS011;64561;44.018;10.144;2022-12-18T00:28:37;11.52;;;6.60;;
75885;SDS011;64561;44.018;10.144;2022-12-18T00:31:05;13.48;;;5.72;;
75885;SDS011;64561;44.018;10.144;2022-12-18T00:33:37;9.77;;;4.93;;
75885;SDS011;64561;44.018;10.144;2022-12-18T00:36:19;7.88;;;4.93;;
75885;SDS011;64561;44.018;10.144;2022-12-18T00:38:47;9.65;;;5.90;;
75885;SDS011;64561;44.018;10.144;2022-12-18T00:41:17;14.02;;;7.15;;
75885;SDS011;64561;44.018;10.144;2022-12-18T00:44:05;18.08;;;6.45;;
75885;SDS011;64561;44.018;10.144;2022-12-18T00:46:33;13.95;;;8.05;;
75885;SDS011;64561;44.018;10.144;2022-12-18T00:49:00;13.23;;;6.90;;
75885;SDS011;64561;44.018;10.144;2022-12-18T00:51:28;15.60;;;8.48;;
75885;SDS011;64561;44.018;10.144;2022-12-18T00:53:55;16.00;;;9.15;;
75885;SDS011;64561;44.018;10.144;2022-12-18T00:56:22;14.27;;;7.57;;
75885;SDS011;64561;44.018;10.144;2022-12-18T00:58:49;14.10;;;7.55;;
75885;SDS011;64561;44.018;10.144;2022-12-18T01:01:17;11.52;;;6.95;;
75885;SDS011;64561;44.018;10.144;2022-12-18T01:03:44;13.80;;;7.63;;
75885;SDS011;64561;44.018;10.144;2022-12-18T01:06:14;12.38;;;7.72;;
75885;SDS011;64561;44.018;10.144;2022-12-18T01:08:42;10.52;;;7.05;;
75885;SDS011;64561;44.018;10.144;2022-12-18T01:11:12;13.57;;;7.47;;
75885;SDS011;64561;44.018;10.144;2022-12-18T01:13:42;16.33;;;8.57;;
75885;SDS011;64561;44.018;10.144;2022-12-18T01:16:13;14.65;;;9.63;;
75885;SDS011;64561;44.018;10.144;2022-12-18T01:18:42;15.02;;;9.73;;
75885;SDS011;64561;44.018;10.144;2022-12-18T01:21:10;13.45;;;9.25;;
75885;SDS011;64561;44.018;10.144;2022-12-18T01:23:38;14.70;;;9.48;;
75885;SDS011;64561;44.018;10.144;2022-12-18T01:26:10;18.75;;;9.27;;
75885;SDS011;64561;44.018;10.144;2022-12-18T01:28:42;12.20;;;8.43;;
75885;SDS011;64561;44.018;10.144;2022-12-18T01:31:17;12.05;;;6.85;;
75885;SDS011;64561;44.018;10.144;2022-12-18T01:33:46;15.57;;;8.60;;
75885;SDS011;64561;44.018;10.144;2022-12-18T01:36:17;14.73;;;8.40;;
75885;SDS011;64561;44.018;10.144;2022-12-18T01:38:49;13.73;;;7.97;;
75885;SDS011;64561;44.018;10.144;2022-12-18T01:41:18;19.10;;;10.07;;
75885;SDS011;64561;44.018;10.144;2022-12-18T01:43:55;14.50;;;8.70;;
75885;SDS011;64561;44.018;10.144;2022-12-18T01:46:24;14.50;;;8.80;;
75885;SDS011;64561;44.018;10.144;2022-12-18T01:48:59;13.75;;;8.88;;
75885;SDS011;64561;44.018;10.144;2022-12-18T01:51:28;15.00;;;9.13;;
75885;SDS011;64561;44.018;10.144;2022-12-18T01:53:57;13.65;;;8.90;;
75885;SDS011;64561;44.018;10.144;2022-12-18T01:56:25;12.35;;;8.00;;
75885;SDS011;64561;44.018;10.144;2022-12-18T01:58:54;13.52;;;8.05;;
75885;SDS011;64561;44.018;10.144;2022-12-18T02:01:26;16.08;;;9.32;;
75885;SDS011;64561;44.018;10.144;2022-12-18T02:03:54;15.80;;;7.75;;
75885;SDS011;64561;44.018;10.144;2022-12-18T02:06:29;15.98;;;9.05;;
75885;SDS011;64561;44.018;10.144;2022-12-18T02:17:10;12.23;;;7.55;;
75885;SDS011;64561;44.018;10.144;2022-12-18T02:29:00;8.55;;;6.43;;
75885;SDS011;64561;44.018;10.144;2022-12-18T02:31:33;15.52;;;6.35;;
75885;SDS011;64561;44.018;10.144;2022-12-18T02:34:06;7.30;;;4.30;;
75885;SDS011;64561;44.018;10.144;2022-12-18T02:36:38;9.43;;;4.65;;
75885;SDS011;64561;44.018;10.144;2022-12-18T02:39:11;10.05;;;4.00;;
75885;SDS011;64561;44.018;10.144;2022-12-18T02:41:49;8.65;;;3.85;;
75885;SDS011;64561;44.018;10.144;2022-12-18T02:44:19;8.35;;;4.38;;
75885;SDS011;64561;44.018;10.144;2022-12-18T02:46:48;6.50;;;3.00;;
75885;SDS011;64561;44.018;10.144;2022-12-18T02:49:24;5.55;;;3.50;;
75885;SDS011;64561;44.018;10.144;2022-12-18T02:52:34;7.57;;;2.83;;
75885;SDS011;64561;44.018;10.144;2022-12-18T03:01:14;6.60;;;3.28;;
75885;SDS011;64561;44.018;10.144;2022-12-18T03:03:49;7.68;;;2.78;;
75885;SDS011;64561;44.018;10.144;2022-12-18T03:09:09;7.32;;;3.55;;
75885;SDS011;64561;44.018;10.144;2022-12-18T03:11:40;7.18;;;3.42;;
75885;SDS011;64561;44.018;10.144;2022-12-18T03:14:32;8.07;;;3.45;;
75885;SDS011;64561;44.018;10.144;2022-12-18T03:17:05;6.70;;;3.25;;
75885;SDS011;64561;44.018;10.144;2022-12-18T03:19:36;7.95;;;2.97;;
75885;SDS011;64561;44.018;10.144;2022-12-18T03:22:05;8.50;;;3.80;;
75885;SDS011;64561;44.018;10.144;2022-12-18T03:24:42;5.32;;;2.95;;
75885;SDS011;64561;44.018;10.144;2022-12-18T03:27:12;6.30;;;3.35;;
75885;SDS011;64561;44.018;10.144;2022-12-18T03:30:05;7.32;;;2.83;;
75885;SDS011;64561;44.018;10.144;2022-12-18T03:32:46;6.85;;;3.45;;
75885;SDS011;64561;44.018;10.144;2022-12-18T03:35:26;7.03;;;3.17;;
75885;SDS011;64561;44.018;10.144;2022-12-18T03:37:58;8.35;;;3.42;;
75885;SDS011;64561;44.018;10.144;2022-12-18T03:40:35;5.65;;;3.15;;
75885;SDS011;64561;44.018;10.144;2022-12-18T03:43:12;5.80;;;3.00;;
75885;SDS011;64561;44.018;10.144;2022-12-18T03:45:51;8.23;;;3.65;;
75885;SDS011;64561;44.018;10.144;2022-12-18T03:51:05;7.43;;;3.20;;
75885;SDS011;64561;44.018;10.144;2022-12-18T03:53:44;5.00;;;2.70;;
75885;SDS011;64561;44.018;10.144;2022-12-18T03:56:22;4.38;;;2.90;;
75885;SDS011;64561;44.018;10.144;2022-12-18T03:58:55;4.95;;;2.60;;
75885;SDS011;64561;44.018;10.144;2022-12-18T04:01:31;5.50;;;2.78;;
75885;SDS011;64561;44.018;10.144;2022-12-18T04:04:01;4.80;;;2.70;;
75885;SDS011;64561;44.018;10.144;2022-12-18T04:06:33;6.03;;;2.30;;
75885;SDS011;64561;44.018;10.144;2022-12-18T04:09:00;4.03;;;2.22;;
75885;SDS011;64561;44.018;10.144;2022-12-18T04:11:29;4.28;;;2.35;;
75885;SDS011;64561;44.018;10.144;2022-12-18T04:13:56;6.43;;;2.80;;
75885;SDS011;64561;44.018;10.144;2022-12-18T04:16:25;5.40;;;2.25;;
75885;SDS011;64561;44.018;10.144;2022-12-18T04:18:55;5.65;;;2.60;;
75885;SDS011;64561;44.018;10.144;2022-12-18T04:21:24;9.10;;;2.60;;
75885;SDS011;64561;44.018;10.144;2022-12-18T04:23:52;5.10;;;2.20;;
75885;SDS011;64561;44.018;10.144;2022-12-18T04:26:21;5.93;;;2.78;;
75885;SDS011;64561;44.018;10.144;2022-12-18T04:29:20;5.53;;;2.55;;
75885;SDS011;64561;44.018;10.144;2022-12-18T04:31:47;4.88;;;2.72;;
75885;SDS011;64561;44.018;10.144;2022-12-18T04:34:15;5.30;;;2.47;;
75885;SDS011;64561;44.018;10.144;2022-12-18T04:36:47;6.95;;;3.33;;
75885;SDS011;64561;44.018;10.144;2022-12-18T04:39:15;4.70;;;2.95;;
75885;SDS011;64561;44.018;10.144;2022-12-18T04:41:42;5.95;;;2.47;;
75885;SDS011;64561;44.018;10.144;2022-12-18T04:44:12;5.85;;;2.67;;
75885;SDS011;64561;44.018;10.144;2022-12-18T04:46:38;4.60;;;2.55;;
75885;SDS011;64561;44.018;10.144;2022-12-18T04:49:05;5.72;;;3.05;;
75885;SDS011;64561;44.018;10.144;2022-12-18T04:51:32;7.53;;;3.53;;
75885;SDS011;64561;44.018;10.144;2022-12-18T04:53:59;13.65;;;6.63;;
75885;SDS011;64561;44.018;10.144;2022-12-18T04:56:26;10.38;;;4.63;;
75885;SDS011;64561;44.018;10.144;2022-12-18T04:58:52;8.25;;;4.80;;
75885;SDS011;64561;44.018;10.144;2022-12-18T05:01:19;8.52;;;5.22;;
75885;SDS011;64561;44.018;10.144;2022-12-18T05:03:46;12.73;;;8.35;;
75885;SDS011;64561;44.018;10.144;2022-12-18T05:06:13;9.25;;;5.90;;
75885;SDS011;64561;44.018;10.144;2022-12-18T05:08:41;8.70;;;5.03;;
75885;SDS011;64561;44.018;10.144;2022-12-18T05:11:09;5.28;;;3.33;;
75885;SDS011;64561;44.018;10.144;2022-12-18T05:13:42;9.60;;;3.83;;
75885;SDS011;64561;44.018;10.144;2022-12-18T05:16:10;6.32;;;3.33;;
75885;SDS011;64561;44.018;10.144;2022-12-18T05:18:39;6.95;;;3.83;;
75885;SDS011;64561;44.018;10.144;2022-12-18T05:21:06;10.55;;;4.85;;
75885;SDS011;64561;44.018;10.144;2022-12-18T05:23:34;8.70;;;4.65;;
75885;SDS011;64561;44.018;10.144;2022-12-18T05:26:02;6.82;;;3.85;;
75885;SDS011;64561;44.018;10.144;2022-12-18T05:28:31;5.45;;;3.55;;
75885;SDS011;64561;44.018;10.144;2022-12-18T05:31:00;5.80;;;3.80;;
75885;SDS011;64561;44.018;10.144;2022-12-18T05:33:29;6.75;;;3.92;;
75885;SDS011;64561;44.018;10.144;2022-12-18T05:35:59;7.63;;;3.85;;
75885;SDS011;64561;44.018;10.144;2022-12-18T05:38:28;5.47;;;3.58;;
75885;SDS011;64561;44.018;10.144;2022-12-18T05:40:56;5.55;;;2.72;;
75885;SDS011;64561;44.018;10.144;2022-12-18T05:43:24;5.03;;;3.13;;
75885;SDS011;64561;44.018;10.144;2022-12-18T05:45:52;8.13;;;3.33;;
75885;SDS011;64561;44.018;10.144;2022-12-18T05:48:20;6.70;;;3.65;;
75885;SDS011;64561;44.018;10.144;2022-12-18T05:50:47;5.10;;;3.55;;
75885;SDS011;64561;44.018;10.144;2022-12-18T05:53:16;5.70;;;3.70;;
75885;SDS011;64561;44.018;10.144;2022-12-18T05:55:46;7.47;;;3.67;;
75885;SDS011;64561;44.018;10.144;2022-12-18T05:58:16;7.93;;;4.18;;
75885;SDS011;64561;44.018;10.144;2022-12-18T06:00:44;9.50;;;4.13;;
75885;SDS011;64561;44.018;10.144;2022-12-18T06:03:12;8.90;;;4.30;;
75885;SDS011;64561;44.018;10.144;2022-12-18T06:05:44;10.35;;;4.18;;
75885;SDS011;64561;44.018;10.144;2022-12-18T06:08:12;8.13;;;4.80;;
75885;SDS011;64561;44.018;10.144;2022-12-18T06:10:39;7.88;;;4.32;;
75885;SDS011;64561;44.018;10.144;2022-12-18T06:13:07;6.47;;;4.10;;
75885;SDS011;64561;44.018;10.144;2022-12-18T06:15:37;8.55;;;4.55;;
75885;SDS011;64561;44.018;10.144;2022-12-18T06:18:06;7.80;;;3.70;;
75885;SDS011;64561;44.018;10.144;2022-12-18T06:20:33;9.82;;;3.80;;
75885;SDS011;64561;44.018;10.144;2022-12-18T06:23:00;5.43;;;3.83;;
75885;SDS011;64561;44.018;10.144;2022-12-18T06:25:26;7.18;;;4.03;;
75885;SDS011;64561;44.018;10.144;2022-12-18T06:27:53;7.10;;;4.13;;
75885;SDS011;64561;44.018;10.144;2022-12-18T06:30:20;7.75;;;4.07;;
75885;SDS011;64561;44.018;10.144;2022-12-18T06:32:48;9.30;;;5.13;;
75885;SDS011;64561;44.018;10.144;2022-12-18T06:35:21;7.72;;;4.55;;
75885;SDS011;64561;44.018;10.144;2022-12-18T06:37:48;7.50;;;3.80;;
75885;SDS011;64561;44.018;10.144;2022-12-18T06:40:16;10.18;;;4.50;;
75885;SDS011;64561;44.018;10.144;2022-12-18T06:42:42;6.47;;;3.88;;
75885;SDS011;64561;44.018;10.144;2022-12-18T06:45:09;8.68;;;5.53;;
75885;SDS011;64561;44.018;10.144;2022-12-18T06:47:37;8.30;;;4.82;;
75885;SDS011;64561;44.018;10.144;2022-12-18T06:50:04;6.53;;;4.45;;
75885;SDS011;64561;44.018;10.144;2022-12-18T06:52:32;6.72;;;4.03;;
75885;SDS011;64561;44.018;10.144;2022-12-18T06:54:59;8.05;;;4.18;;
75885;SDS011;64561;44.018;10.144;2022-12-18T06:57:26;8.63;;;5.00;;
75885;SDS011;64561;44.018;10.144;2022-12-18T06:59:53;6.78;;;3.75;;
75885;SDS011;64561;44.018;10.144;2022-12-18T07:02:23;7.20;;;4.57;;
75885;SDS011;64561;44.018;10.144;2022-12-18T07:04:50;7.30;;;4.25;;
75885;SDS011;64561;44.018;10.144;2022-12-18T07:07:17;11.52;;;5.45;;
75885;SDS011;64561;44.018;10.144;2022-12-18T07:09:44;11.13;;;5.75;;
75885;SDS011;64561;44.018;10.144;2022-12-18T07:12:11;8.50;;;5.45;;
75885;SDS011;64561;44.018;10.144;2022-12-18T07:14:38;14.45;;;7.18;;
75885;SDS011;64561;44.018;10.144;2022-12-18T07:17:05;9.70;;;5.65;;
75885;SDS011;64561;44.018;10.144;2022-12-18T07:19:32;11.02;;;6.53;;
75885;SDS011;64561;44.018;10.144;2022-12-18T07:21:59;10.98;;;5.68;;
75885;SDS011;64561;44.018;10.144;2022-12-18T07:24:26;9.32;;;5.68;;
75885;SDS011;64561;44.018;10.144;2022-12-18T07:26:54;8.70;;;6.28;;
75885;SDS011;64561;44.018;10.144;2022-12-18T07:29:21;7.72;;;5.38;;
75885;SDS011;64561;44.018;10.144;2022-12-18T07:31:47;9.90;;;7.05;;
75885;SDS011;64561;44.018;10.144;2022-12-18T07:34:15;13.25;;;7.25;;
75885;SDS011;64561;44.018;10.144;2022-12-18T07:36:42;13.63;;;9.25;;
75885;SDS011;64561;44.018;10.144;2022-12-18T07:39:10;12.55;;;7.13;;
75885;SDS011;64561;44.018;10.144;2022-12-18T07:41:38;12.82;;;8.05;;
75885;SDS011;64561;44.018;10.144;2022-12-18T07:44:14;26.45;;;10.05;;
75885;SDS011;64561;44.018;10.144;2022-12-18T07:46:41;17.55;;;9.15;;
75885;SDS011;64561;44.018;10.144;2022-12-18T07:49:08;13.00;;;9.02;;
75885;SDS011;64561;44.018;10.144;2022-12-18T07:51:35;16.90;;;11.02;;
75885;SDS011;64561;44.018;10.144;2022-12-18T07:54:01;15.27;;;9.55;;
75885;SDS011;64561;44.018;10.144;2022-12-18T07:56:28;21.50;;;13.98;;
75885;SDS011;64561;44.018;10.144;2022-12-18T07:58:57;21.98;;;13.45;;
75885;SDS011;64561;44.018;10.144;2022-12-18T08:01:25;21.20;;;14.65;;
75885;SDS011;64561;44.018;10.144;2022-12-18T08:03:52;21.27;;;15.07;;
75885;SDS011;64561;44.018;10.144;2022-12-18T08:06:19;22.02;;;13.93;;
75885;SDS011;64561;44.018;10.144;2022-12-18T08:08:53;23.92;;;16.08;;
75885;SDS011;64561;44.018;10.144;2022-12-18T08:11:21;17.52;;;11.90;;
75885;SDS011;64561;44.018;10.144;2022-12-18T08:13:49;20.40;;;10.93;;
75885;SDS011;64561;44.018;10.144;2022-12-18T08:16:17;18.08;;;10.48;;
75885;SDS011;64561;44.018;10.144;2022-12-18T08:18:45;16.27;;;10.13;;
75885;SDS011;64561;44.018;10.144;2022-12-18T08:21:14;14.43;;;9.10;;
75885;SDS011;64561;44.018;10.144;2022-12-18T08:23:43;14.63;;;7.93;;
75885;SDS011;64561;44.018;10.144;2022-12-18T08:26:11;14.45;;;8.05;;
75885;SDS011;64561;44.018;10.144;2022-12-18T08:28:39;15.77;;;8.57;;
75885;SDS011;64561;44.018;10.144;2022-12-18T08:31:06;12.90;;;8.20;;
75885;SDS011;64561;44.018;10.144;2022-12-18T08:33:35;12.18;;;8.23;;
75885;SDS011;64561;44.018;10.144;2022-12-18T08:36:03;10.48;;;5.72;;
75885;SDS011;64561;44.018;10.144;2022-12-18T08:38:31;9.02;;;4.57;;
75885;SDS011;64561;44.018;10.144;2022-12-18T08:41:05;10.75;;;4.90;;
75885;SDS011;64561;44.018;10.144;2022-12-18T08:43:33;9.05;;;5.63;;
75885;SDS011;64561;44.018;10.144;2022-12-18T08:46:20;11.90;;;6.05;;
75885;SDS011;64561;44.018;10.144;2022-12-18T08:48:48;9.65;;;5.22;;
75885;SDS011;64561;44.018;10.144;2022-12-18T08:51:17;11.32;;;5.45;;
75885;SDS011;64561;44.018;10.144;2022-12-18T08:53:44;11.95;;;6.18;;
75885;SDS011;64561;44.018;10.144;2022-12-18T08:56:14;11.60;;;6.28;;
75885;SDS011;64561;44.018;10.144;2022-12-18T08:58:41;12.23;;;5.80;;
75885;SDS011;64561;44.018;10.144;2022-12-18T09:01:09;11.35;;;6.60;;
75885;SDS011;64561;44.018;10.144;2022-12-18T09:03:38;10.50;;;5.95;;
75885;SDS011;64561;44.018;10.144;2022-12-18T09:06:07;10.93;;;6.88;;
75885;SDS011;64561;44.018;10.144;2022-12-18T09:08:34;10.45;;;5.95;;
75885;SDS011;64561;44.018;10.144;2022-12-18T09:11:03;11.40;;;6.90;;
75885;SDS011;64561;44.018;10.144;2022-12-18T09:13:30;11.48;;;5.47;;
75885;SDS011;64561;44.018;10.144;2022-12-18T09:15:58;29.45;;;13.82;;
75885;SDS011;64561;44.018;10.144;2022-12-18T09:18:25;26.58;;;13.10;;
75885;SDS011;64561;44.018;10.144;2022-12-18T09:20:52;18.10;;;9.15;;
75885;SDS011;64561;44.018;10.144;2022-12-18T09:23:19;16.73;;;7.55;;
75885;SDS011;64561;44.018;10.144;2022-12-18T09:25:47;11.25;;;6.20;;
75885;SDS011;64561;44.018;10.144;2022-12-18T09:28:16;12.07;;;6.80;;
75885;SDS011;64561;44.018;10.144;2022-12-18T09:30:46;9.52;;;6.18;;
75885;SDS011;64561;44.018;10.144;2022-12-18T09:33:16;13.75;;;7.13;;
75885;SDS011;64561;44.018;10.144;2022-12-18T09:35:43;10.60;;;5.90;;
75885;SDS011;64561;44.018;10.144;2022-12-18T09:38:15;10.88;;;6.78;;
75885;SDS011;64561;44.018;10.144;2022-12-18T09:40:47;11.90;;;6.90;;
75885;SDS011;64561;44.018;10.144;2022-12-18T09:46:45;14.02;;;8.23;;
75885;SDS011;64561;44.018;10.144;2022-12-18T09:49:09;13.07;;;7.78;;
75885;SDS011;64561;44.018;10.144;2022-12-18T09:51:43;11.95;;;6.65;;
75885;SDS011;64561;44.018;10.144;2022-12-18T09:54:21;19.38;;;9.35;;
75885;SDS011;64561;44.018;10.144;2022-12-18T09:56:58;15.25;;;6.80;;
75885;SDS011;64561;44.018;10.144;2022-12-18T09:59:30;17.58;;;6.88;;
75885;SDS011;64561;44.018;10.144;2022-12-18T10:02:12;11.48;;;6.18;;
75885;SDS011;64561;44.018;10.144;2022-12-18T10:04:41;12.52;;;7.03;;
75885;SDS011;64561;44.018;10.144;2022-12-18T10:07:19;10.23;;;6.53;;
75885;SDS011;64561;44.018;10.144;2022-12-18T10:10:03;8.02;;;5.68;;
75885;SDS011;64561;44.018;10.144;2022-12-18T10:12:53;17.67;;;7.22;;
75885;SDS011;64561;44.018;10.144;2022-12-18T10:15:39;10.25;;;5.80;;
75885;SDS011;64561;44.018;10.144;2022-12-18T10:20:54;19.40;;;9.80;;
75885;SDS011;64561;44.018;10.144;2022-12-18T10:28:31;19.02;;;11.88;;
75885;SDS011;64561;44.018;10.144;2022-12-18T10:30:59;13.27;;;8.40;;
75885;SDS011;64561;44.018;10.144;2022-12-18T10:33:30;12.52;;;8.70;;
75885;SDS011;64561;44.018;10.144;2022-12-18T10:35:58;10.68;;;7.13;;
75885;SDS011;64561;44.018;10.144;2022-12-18T10:38:27;9.05;;;5.15;;
75885;SDS011;64561;44.018;10.144;2022-12-18T10:46:04;9.65;;;4.70;;
75885;SDS011;64561;44.018;10.144;2022-12-18T10:51:28;8.45;;;5.07;;
75885;SDS011;64561;44.018;10.144;2022-12-18T10:53:59;10.07;;;6.30;;
75885;SDS011;64561;44.018;10.144;2022-12-18T10:56:30;11.20;;;6.05;;
75885;SDS011;64561;44.018;10.144;2022-12-18T10:59:03;15.30;;;6.45;;
75885;SDS011;64561;44.018;10.144;2022-12-18T11:01:51;10.27;;;5.78;;
75885;SDS011;64561;44.018;10.144;2022-12-18T11:04:22;9.48;;;5.22;;
75885;SDS011;64561;44.018;10.144;2022-12-18T11:06:58;8.80;;;4.50;;
75885;SDS011;64561;44.018;10.144;2022-12-18T11:09:38;7.10;;;4.50;;
75885;SDS011;64561;44.018;10.144;2022-12-18T11:12:19;8.38;;;4.88;;
75885;SDS011;64561;44.018;10.144;2022-12-18T11:14:49;7.97;;;5.13;;
75885;SDS011;64561;44.018;10.144;2022-12-18T11:20:07;8.95;;;5.35;;
75885;SDS011;64561;44.018;10.144;2022-12-18T11:22:57;5.70;;;3.83;;
75885;SDS011;64561;44.018;10.144;2022-12-18T11:25:27;6.32;;;3.53;;
75885;SDS011;64561;44.018;10.144;2022-12-18T11:28:00;10.45;;;5.22;;
75885;SDS011;64561;44.018;10.144;2022-12-18T11:30:46;11.75;;;5.53;;
75885;SDS011;64561;44.018;10.144;2022-12-18T11:33:14;8.50;;;5.03;;
75885;SDS011;64561;44.018;10.144;2022-12-18T11:35:52;10.20;;;5.90;;
75885;SDS011;64561;44.018;10.144;2022-12-18T11:49:24;9.07;;;4.22;;
75885;SDS011;64561;44.018;10.144;2022-12-18T11:54:46;7.43;;;3.78;;
75885;SDS011;64561;44.018;10.144;2022-12-18T12:11:13;6.28;;;3.83;;
75885;SDS011;64561;44.018;10.144;2022-12-18T12:19:48;7.85;;;4.20;;
75885;SDS011;64561;44.018;10.144;2022-12-18T12:25:15;7.65;;;4.10;;
75885;SDS011;64561;44.018;10.144;2022-12-18T12:28:14;6.88;;;3.55;;
75885;SDS011;64561;44.018;10.144;2022-12-18T12:35:52;5.25;;;3.53;;
75885;SDS011;64561;44.018;10.144;2022-12-18T12:38:43;5.80;;;3.17;;
75885;SDS011;64561;44.018;10.144;2022-12-18T12:41:27;5.70;;;2.83;;
75885;SDS011;64561;44.018;10.144;2022-12-18T12:44:28;6.60;;;3.45;;
75885;SDS011;64561;44.018;10.144;2022-12-18T12:47:04;7.72;;;4.15;;
75885;SDS011;64561;44.018;10.144;2022-12-18T12:49:40;4.55;;;3.03;;
75885;SDS011;64561;44.018;10.144;2022-12-18T12:52:37;5.38;;;3.00;;
75885;SDS011;64561;44.018;10.144;2022-12-18T12:55:12;3.92;;;2.40;;
75885;SDS011;64561;44.018;10.144;2022-12-18T12:57:51;3.63;;;2.20;;
75885;SDS011;64561;44.018;10.144;2022-12-18T13:00:26;4.20;;;2.28;;
75885;SDS011;64561;44.018;10.144;2022-12-18T13:03:23;4.57;;;2.92;;
75885;SDS011;64561;44.018;10.144;2022-12-18T13:06:02;4.20;;;2.60;;
75885;SDS011;64561;44.018;10.144;2022-12-18T13:08:52;4.38;;;2.72;;
75885;SDS011;64561;44.018;10.144;2022-12-18T13:11:30;7.07;;;2.65;;
75885;SDS011;64561;44.018;10.144;2022-12-18T13:14:38;3.95;;;2.55;;
75885;SDS011;64561;44.018;10.144;2022-12-18T13:20:02;4.32;;;2.40;;
75885;SDS011;64561;44.018;10.144;2022-12-18T13:22:31;3.78;;;2.67;;
75885;SDS011;64561;44.018;10.144;2022-12-18T13:25:03;7.15;;;3.30;;
75885;SDS011;64561;44.018;10.144;2022-12-18T13:47:24;5.18;;;2.65;;
75885;SDS011;64561;44.018;10.144;2022-12-18T13:49:57;4.05;;;2.20;;
75885;SDS011;64561;44.018;10.144;2022-12-18T13:52:25;9.00;;;5.28;;
75885;SDS011;64561;44.018;10.144;2022-12-18T13:55:00;5.93;;;3.45;;
75885;SDS011;64561;44.018;10.144;2022-12-18T13:57:32;3.75;;;2.58;;
75885;SDS011;64561;44.018;10.144;2022-12-18T14:02:55;10.18;;;5.45;;
75885;SDS011;64561;44.018;10.144;2022-12-18T14:08:15;10.85;;;6.80;;
75885;SDS011;64561;44.018;10.144;2022-12-18T14:10:43;18.77;;;11.23;;
75885;SDS011;64561;44.018;10.144;2022-12-18T14:13:24;6.75;;;4.80;;
75885;SDS011;64561;44.018;10.144;2022-12-18T14:15:57;7.78;;;4.75;;
75885;SDS011;64561;44.018;10.144;2022-12-18T14:21:17;9.52;;;6.22;;
75885;SDS011;64561;44.018;10.144;2022-12-18T14:28:49;6.65;;;3.92;;
75885;SDS011;64561;44.018;10.144;2022-12-18T14:31:17;7.97;;;5.35;;
75885;SDS011;64561;44.018;10.144;2022-12-18T14:33:46;7.00;;;4.22;;
75885;SDS011;64561;44.018;10.144;2022-12-18T14:36:19;5.97;;;3.90;;
75885;SDS011;64561;44.018;10.144;2022-12-18T14:38:52;7.18;;;4.60;;
75885;SDS011;64561;44.018;10.144;2022-12-18T14:41:21;7.25;;;5.13;;
75885;SDS011;64561;44.018;10.144;2022-12-18T14:43:52;8.13;;;5.55;;
75885;SDS011;64561;44.018;10.144;2022-12-18T14:48:56;9.68;;;6.30;;
75885;SDS011;64561;44.018;10.144;2022-12-18T14:51:27;9.52;;;4.95;;
75885;SDS011;64561;44.018;10.144;2022-12-18T14:54:00;10.90;;;5.35;;
75885;SDS011;64561;44.018;10.144;2022-12-18T14:57:00;6.90;;;4.32;;
75885;SDS011;64561;44.018;10.144;2022-12-18T14:59:28;10.30;;;5.90;;
75885;SDS011;64561;44.018;10.144;2022-12-18T15:02:01;11.93;;;6.10;;
75885;SDS011;64561;44.018;10.144;2022-12-18T15:04:38;7.68;;;4.95;;
75885;SDS011;64561;44.018;10.144;2022-12-18T15:07:17;9.27;;;5.55;;
75885;SDS011;64561;44.018;10.144;2022-12-18T15:12:42;11.23;;;7.15;;
75885;SDS011;64561;44.018;10.144;2022-12-18T15:18:15;9.63;;;5.93;;
75885;SDS011;64561;44.018;10.144;2022-12-18T15:20:50;12.40;;;6.85;;
75885;SDS011;64561;44.018;10.144;2022-12-18T15:25:57;17.50;;;11.25;;
75885;SDS011;64561;44.018;10.144;2022-12-18T15:28:34;19.42;;;12.13;;
75885;SDS011;64561;44.018;10.144;2022-12-18T15:33:40;13.48;;;8.70;;
75885;SDS011;64561;44.018;10.144;2022-12-18T15:36:15;14.15;;;9.25;;
75885;SDS011;64561;44.018;10.144;2022-12-18T15:38:52;16.45;;;10.02;;
75885;SDS011;64561;44.018;10.144;2022-12-18T15:41:33;19.17;;;11.05;;
75885;SDS011;64561;44.018;10.144;2022-12-18T15:44:02;23.23;;;13.05;;
75885;SDS011;64561;44.018;10.144;2022-12-18T15:46:43;30.67;;;18.30;;
75885;SDS011;64561;44.018;10.144;2022-12-18T15:49:10;35.10;;;19.52;;
75885;SDS011;64561;44.018;10.144;2022-12-18T15:51:39;39.45;;;23.63;;
75885;SDS011;64561;44.018;10.144;2022-12-18T15:54:08;22.67;;;15.32;;
75885;SDS011;64561;44.018;10.144;2022-12-18T15:56:40;21.30;;;13.73;;
75885;SDS011;64561;44.018;10.144;2022-12-18T15:59:26;19.15;;;13.68;;
75885;SDS011;64561;44.018;10.144;2022-12-18T16:01:53;21.63;;;11.75;;
75885;SDS011;64561;44.018;10.144;2022-12-18T16:04:20;15.77;;;10.75;;
75885;SDS011;64561;44.018;10.144;2022-12-18T16:06:49;15.38;;;9.85;;
75885;SDS011;64561;44.018;10.144;2022-12-18T16:09:36;16.20;;;9.73;;
75885;SDS011;64561;44.018;10.144;2022-12-18T16:12:04;14.05;;;9.50;;
75885;SDS011;64561;44.018;10.144;2022-12-18T16:14:32;19.92;;;11.02;;
75885;SDS011;64561;44.018;10.144;2022-12-18T16:17:00;23.45;;;14.75;;
75885;SDS011;64561;44.018;10.144;2022-12-18T16:19:29;25.15;;;16.95;;
75885;SDS011;64561;44.018;10.144;2022-12-18T16:21:57;26.58;;;17.50;;
75885;SDS011;64561;44.018;10.144;2022-12-18T16:24:25;20.10;;;13.45;;
75885;SDS011;64561;44.018;10.144;2022-12-18T16:26:56;19.05;;;10.90;;
75885;SDS011;64561;44.018;10.144;2022-12-18T16:29:26;14.48;;;10.32;;
75885;SDS011;64561;44.018;10.144;2022-12-18T16:31:55;13.88;;;9.88;;
75885;SDS011;64561;44.018;10.144;2022-12-18T16:37:02;14.25;;;10.88;;
75885;SDS011;64561;44.018;10.144;2022-12-18T16:39:34;14.30;;;10.73;;
75885;SDS011;64561;44.018;10.144;2022-12-18T16:42:13;21.67;;;14.60;;
75885;SDS011;64561;44.018;10.144;2022-12-18T16:44:43;21.90;;;13.05;;
75885;SDS011;64561;44.018;10.144;2022-12-18T16:47:11;15.65;;;11.00;;
75885;SDS011;64561;44.018;10.144;2022-12-18T16:49:40;18.15;;;13.13;;
75885;SDS011;64561;44.018;10.144;2022-12-18T16:52:08;19.33;;;11.98;;
75885;SDS011;64561;44.018;10.144;2022-12-18T16:54:35;29.23;;;17.15;;
75885;SDS011;64561;44.018;10.144;2022-12-18T16:57:04;23.02;;;14.57;;
75885;SDS011;64561;44.018;10.144;2022-12-18T16:59:31;38.55;;;21.08;;
75885;SDS011;64561;44.018;10.144;2022-12-18T17:01:59;36.47;;;19.55;;
75885;SDS011;64561;44.018;10.144;2022-12-18T17:04:26;40.45;;;18.35;;
75885;SDS011;64561;44.018;10.144;2022-12-18T17:06:53;31.48;;;18.50;;
75885;SDS011;64561;44.018;10.144;2022-12-18T17:09:20;28.67;;;17.27;;
75885;SDS011;64561;44.018;10.144;2022-12-18T17:11:50;23.25;;;15.65;;
75885;SDS011;64561;44.018;10.144;2022-12-18T17:14:20;32.55;;;17.65;;
75885;SDS011;64561;44.018;10.144;2022-12-18T17:16:50;26.65;;;17.88;;
75885;SDS011;64561;44.018;10.144;2022-12-18T17:19:40;20.92;;;13.90;;